Time,TemperatureF,DewpointF,PressureIn,WindDirection,WindDirectionDegrees,WindSpeedMPH,WindSpeedGustMPH,Humidity,HourlyPrecipIn,Conditions,Clouds,dailyrainin,SoftwareType,DateUTC
2013-05-06 00:02:00,60.0,51.0,-100.00,South,170,6.0,9.0,73,-99.99,,,-99.99,,2013-05-06 04:02:00,
2013-05-06 00:12:00,60.0,51.0,-100.00,South,175,6.0,9.0,73,-99.99,,,-99.99,,2013-05-06 04:12:00,
2013-05-06 00:23:00,60.0,51.0,-100.00,South,175,7.0,10.0,73,-99.99,,,-99.99,,2013-05-06 04:23:00,
2013-05-06 00:32:00,60.0,51.0,-100.00,South,175,5.0,10.0,73,-99.99,,,-99.99,,2013-05-06 04:32:00,
2013-05-06 00:43:00,60.0,51.0,-100.00,South,170,4.0,8.0,73,-99.99,,,-99.99,,2013-05-06 04:43:00,
2013-05-06 00:52:00,60.0,51.0,-100.00,South,175,6.0,8.0,73,-99.99,,,-99.99,,2013-05-06 04:52:00,
2013-05-06 01:02:00,60.0,51.0,-100.00,South,170,7.0,11.0,73,-99.99,,,-99.99,,2013-05-06 05:02:00,
2013-05-06 01:12:00,60.0,51.0,-100.00,South,170,8.0,11.0,73,-99.99,,,-99.99,,2013-05-06 05:12:00,
2013-05-06 01:22:00,59.0,51.0,-100.00,SSE,155,5.0,9.0,73,-99.99,,,-99.99,,2013-05-06 05:22:00,
2013-05-06 01:32:00,59.0,51.0,-100.00,ESE,120,3.0,6.0,76,-99.99,,,-99.99,,2013-05-06 05:32:00,
2013-05-06 01:42:00,58.0,51.0,-100.00,SE,135,1.0,5.0,80,-99.99,,,-99.99,,2013-05-06 05:42:00,
2013-05-06 01:52:00,57.0,52.0,-100.00,SE,135,0.0,4.0,82,-99.99,,,-99.99,,2013-05-06 05:52:00,
2013-05-06 02:02:00,56.0,52.0,-100.00,SW,225,0.0,1.0,84,-99.99,,,-99.99,,2013-05-06 06:02:00,
2013-05-06 02:12:00,57.0,52.0,-100.00,South,185,2.0,6.0,84,-99.99,,,-99.99,,2013-05-06 06:12:00,
2013-05-06 02:22:00,57.0,52.0,-100.00,SW,220,0.0,3.0,84,-99.99,,,-99.99,,2013-05-06 06:22:00,
2013-05-06 02:32:00,56.0,51.0,-100.00,West,265,3.0,4.0,85,-99.99,,,-99.99,,2013-05-06 06:32:00,
2013-05-06 02:42:00,56.0,52.0,-100.00,WSW,250,5.0,7.0,88,-99.99,,,-99.99,,2013-05-06 06:42:00,
2013-05-06 02:52:00,56.0,53.0,-100.00,NW,310,1.0,6.0,88,-99.99,,,-99.99,,2013-05-06 06:52:00,
2013-05-06 03:01:00,56.0,52.0,-100.00,NW,315,0.0,2.0,88,-99.99,,,-99.99,,2013-05-06 07:01:00,
2013-05-06 03:11:00,55.0,52.0,-100.00,NW,305,3.0,4.0,88,-99.99,,,-99.99,,2013-05-06 07:11:00,
2013-05-06 03:22:00,56.0,53.0,-100.00,WNW,295,6.0,10.0,90,-99.99,,,-99.99,,2013-05-06 07:22:00,
2013-05-06 03:32:00,56.0,53.0,-100.00,WNW,285,4.0,9.0,91,-99.99,,,-99.99,,2013-05-06 07:32:00,
2013-05-06 03:42:00,55.0,53.0,-100.00,NW,315,1.0,6.0,92,-99.99,,,-99.99,,2013-05-06 07:42:00,
2013-05-06 03:52:00,55.0,53.0,-100.00,NNW,340,1.0,2.0,92,-99.99,,,-99.99,,2013-05-06 07:52:00,
2013-05-06 04:02:00,55.0,53.0,-100.00,NW,310,0.0,1.0,92,-99.99,,,-99.99,,2013-05-06 08:02:00,
2013-05-06 04:12:00,54.0,53.0,-100.00,West,275,2.0,4.0,93,-99.99,,,-99.99,,2013-05-06 08:12:00,
2013-05-06 04:22:00,55.0,53.0,-100.00,West,270,2.0,4.0,93,-99.99,,,-99.99,,2013-05-06 08:22:00,
2013-05-06 04:32:00,54.0,53.0,-100.00,WSW,255,1.0,4.0,93,-99.99,,,-99.99,,2013-05-06 08:32:00,
2013-05-06 04:42:00,54.0,52.0,-100.00,SW,235,4.0,6.0,94,-99.99,,,-99.99,,2013-05-06 08:42:00,
2013-05-06 04:52:00,54.0,52.0,-100.00,West,270,5.0,9.0,94,-99.99,,,-99.99,,2013-05-06 08:52:00,
2013-05-06 05:02:00,53.0,52.0,-100.00,West,260,2.0,7.0,94,-99.99,,,-99.99,,2013-05-06 09:02:00,
2013-05-06 05:11:00,53.0,51.0,-100.00,West,270,4.0,5.0,94,-99.99,,,-99.99,,2013-05-06 09:11:00,
2013-05-06 05:22:00,52.0,50.0,-100.00,WSW,250,2.0,5.0,94,-99.99,,,-99.99,,2013-05-06 09:22:00,
2013-05-06 05:33:00,51.0,50.0,-100.00,SW,235,2.0,4.0,94,-99.99,,,-99.99,,2013-05-06 09:33:00,
2013-05-06 05:43:00,51.0,50.0,-100.00,WSW,240,4.0,4.0,94,-99.99,,,-99.99,,2013-05-06 09:43:00,
2013-05-06 05:53:00,50.0,49.0,-100.00,West,270,4.0,5.0,94,-99.99,,,-99.99,,2013-05-06 09:53:00,
2013-05-06 06:03:00,50.0,49.0,-100.00,West,270,4.0,7.0,94,-99.99,,,-99.99,,2013-05-06 10:03:00,
2013-05-06 06:12:00,50.0,49.0,-100.00,WSW,255,4.0,7.0,94,-99.99,,,-99.99,,2013-05-06 10:12:00,
2013-05-06 06:22:00,50.0,49.0,-100.00,West,275,5.0,8.0,94,-99.99,,,-99.99,,2013-05-06 10:22:00,
2013-05-06 06:33:00,51.0,49.0,-100.00,West,280,6.0,10.0,94,-99.99,,,-99.99,,2013-05-06 10:33:00,
2013-05-06 06:42:00,51.0,49.0,-100.00,West,275,7.0,12.0,94,-99.99,,,-99.99,,2013-05-06 10:42:00,
2013-05-06 06:52:00,51.0,49.0,-100.00,West,275,4.0,11.0,94,-99.99,,,-99.99,,2013-05-06 10:52:00,
2013-05-06 07:02:00,51.0,49.0,-100.00,WNW,295,6.0,10.0,94,-99.99,,,-99.99,,2013-05-06 11:02:00,
2013-05-06 07:10:00,51.0,49.0,-100.00,WSW,255,6.0,12.0,94,-99.99,,,-99.99,,2013-05-06 11:10:00,
2013-05-06 07:12:00,51.0,49.0,-100.00,West,270,6.0,13.0,94,-99.99,,,-99.99,,2013-05-06 11:12:00,
2013-05-06 07:22:00,51.0,49.0,-100.00,WNW,300,5.0,9.0,94,-99.99,,,-99.99,,2013-05-06 11:22:00,
2013-05-06 07:32:00,51.0,49.0,-100.00,WNW,295,7.0,12.0,94,-99.99,,,-99.99,,2013-05-06 11:32:00,
2013-05-06 07:42:00,51.0,49.0,-100.00,WSW,255,6.0,12.0,94,-99.99,,,-99.99,,2013-05-06 11:42:00,
2013-05-06 07:52:00,51.0,49.0,-100.00,WSW,255,6.0,12.0,94,-99.99,,,-99.99,,2013-05-06 11:52:00,
2013-05-06 08:02:00,51.0,49.0,-100.00,WSW,255,6.0,12.0,94,-99.99,,,-99.99,,2013-05-06 12:02:00,
2013-05-06 14:43:00,67.0,42.0,-100.00,West,280,13.0,17.0,41,-99.99,,,-99.99,,2013-05-06 18:43:00,
2013-05-06 14:52:00,70.0,44.0,-100.00,WSW,255,6.0,14.0,39,-99.99,,,-99.99,,2013-05-06 18:52:00,
2013-05-06 15:01:00,70.0,42.0,-100.00,WSW,255,10.0,16.0,37,-99.99,,,-99.99,,2013-05-06 19:01:00,
2013-05-06 15:11:00,70.0,43.0,-100.00,WNW,285,9.0,14.0,37,-99.99,,,-99.99,,2013-05-06 19:11:00,
2013-05-06 15:22:00,70.0,42.0,-100.00,WSW,250,10.0,15.0,37,-99.99,,,-99.99,,2013-05-06 19:22:00,
2013-05-06 15:32:00,71.0,42.0,-100.00,West,270,7.0,17.0,35,-99.99,,,-99.99,,2013-05-06 19:32:00,
2013-05-06 15:42:00,71.0,42.0,-100.00,West,270,8.0,17.0,35,-99.99,,,-99.99,,2013-05-06 19:42:00,
2013-05-06 15:52:00,71.0,42.0,-100.00,West,270,8.0,17.0,35,-99.99,,,-99.99,,2013-05-06 19:52:00,
2013-05-06 16:02:00,71.0,41.0,-100.00,West,260,7.0,19.0,34,-99.99,,,-99.99,,2013-05-06 20:02:00,
2013-05-06 16:11:00,67.0,39.0,-100.00,SW,230,7.0,16.0,36,-99.99,,,-99.99,,2013-05-06 20:11:00,
2013-05-06 16:21:00,67.0,39.0,-100.00,SW,230,7.0,16.0,36,-99.99,,,-99.99,,2013-05-06 20:21:00,
2013-05-06 16:32:00,71.0,42.0,-100.00,WSW,250,8.0,15.0,35,-99.99,,,-99.99,,2013-05-06 20:32:00,
2013-05-06 16:42:00,71.0,42.0,-100.00,WSW,250,8.0,15.0,35,-99.99,,,-99.99,,2013-05-06 20:42:00,
2013-05-06 16:52:00,68.0,41.0,-100.00,West,270,14.0,17.0,37,-99.99,,,-99.99,,2013-05-06 20:52:00,
2013-05-06 17:01:00,69.0,41.0,-100.00,West,280,11.0,18.0,37,-99.99,,,-99.99,,2013-05-06 21:01:00,
2013-05-06 17:11:00,68.0,41.0,-100.00,NW,310,11.0,21.0,38,-99.99,,,-99.99,,2013-05-06 21:11:00,
2013-05-06 17:21:00,69.0,42.0,-100.00,WSW,255,10.0,19.0,38,-99.99,,,-99.99,,2013-05-06 21:21:00,
2013-05-06 17:33:00,67.0,41.0,-100.00,West,280,9.0,17.0,38,-99.99,,,-99.99,,2013-05-06 21:33:00,
2013-05-06 17:43:00,66.0,41.0,-100.00,WNW,295,11.0,19.0,39,-99.99,,,-99.99,,2013-05-06 21:43:00,
2013-05-06 17:53:00,65.0,40.0,-100.00,West,280,11.0,19.0,40,-99.99,,,-99.99,,2013-05-06 21:53:00,
2013-05-06 18:03:00,65.0,40.0,-100.00,WNW,300,9.0,16.0,40,-99.99,,,-99.99,,2013-05-06 22:03:00,
2013-05-06 18:12:00,65.0,40.0,-100.00,West,265,11.0,14.0,40,-99.99,,,-99.99,,2013-05-06 22:12:00,
2013-05-06 18:22:00,64.0,40.0,-100.00,NW,305,9.0,17.0,41,-99.99,,,-99.99,,2013-05-06 22:22:00,
2013-05-06 18:33:00,65.0,41.0,-100.00,WSW,255,9.0,17.0,41,-99.99,,,-99.99,,2013-05-06 22:33:00,
2013-05-06 18:45:00,65.0,41.0,-100.00,NW,315,13.0,16.0,41,-99.99,,,-99.99,,2013-05-06 22:45:00,
2013-05-06 18:52:00,65.0,41.0,-100.00,NW,305,11.0,17.0,41,-99.99,,,-99.99,,2013-05-06 22:52:00,
2013-05-06 19:03:00,63.0,41.0,-100.00,West,270,11.0,16.0,43,-99.99,,,-99.99,,2013-05-06 23:03:00,
2013-05-06 19:12:00,63.0,41.0,-100.00,NW,310,7.0,16.0,45,-99.99,,,-99.99,,2013-05-06 23:12:00,
2013-05-06 19:22:00,62.0,42.0,-100.00,NW,305,6.0,17.0,47,-99.99,,,-99.99,,2013-05-06 23:22:00,
2013-05-06 19:32:00,62.0,42.0,-100.00,NW,305,6.0,11.0,49,-99.99,,,-99.99,,2013-05-06 23:32:00,
2013-05-06 19:42:00,62.0,42.0,-100.00,WNW,300,4.0,11.0,48,-99.99,,,-99.99,,2013-05-06 23:42:00,
2013-05-06 19:52:00,62.0,42.0,-100.00,WNW,300,4.0,11.0,48,-99.99,,,-99.99,,2013-05-06 23:52:00,
2013-05-06 20:01:00,61.0,41.0,-100.00,NW,305,4.0,7.0,48,-99.99,,,-99.99,,2013-05-07 00:01:00,
2013-05-06 20:12:00,61.0,41.0,-100.00,NW,305,4.0,7.0,48,-99.99,,,-99.99,,2013-05-07 00:12:00,
2013-05-06 20:22:00,60.0,42.0,-100.00,WNW,300,4.0,7.0,50,-99.99,,,-99.99,,2013-05-07 00:22:00,
2013-05-06 20:32:00,60.0,42.0,-100.00,WNW,300,4.0,7.0,50,-99.99,,,-99.99,,2013-05-07 00:32:00,
2013-05-06 20:42:00,59.0,41.0,-100.00,SW,235,1.0,6.0,50,-99.99,,,-99.99,,2013-05-07 00:42:00,
2013-05-06 20:52:00,59.0,42.0,-100.00,West,260,3.0,4.0,53,-99.99,,,-99.99,,2013-05-07 00:52:00,
2013-05-06 21:01:00,58.0,42.0,-100.00,West,280,3.0,5.0,55,-99.99,,,-99.99,,2013-05-07 01:01:00,
2013-05-06 21:11:00,58.0,42.0,-100.00,West,275,4.0,6.0,56,-99.99,,,-99.99,,2013-05-07 01:11:00,
2013-05-06 21:21:00,57.0,42.0,-100.00,West,275,4.0,6.0,56,-99.99,,,-99.99,,2013-05-07 01:21:00,
2013-05-06 21:32:00,57.0,42.0,-100.00,West,280,3.0,8.0,57,-99.99,,,-99.99,,2013-05-07 01:32:00,
2013-05-06 21:42:00,57.0,42.0,-100.00,West,280,4.0,6.0,57,-99.99,,,-99.99,,2013-05-07 01:42:00,
2013-05-06 21:52:00,57.0,42.0,-100.00,West,280,3.0,5.0,59,-99.99,,,-99.99,,2013-05-07 01:52:00,
2013-05-06 22:02:00,56.0,42.0,-100.00,West,280,4.0,5.0,59,-99.99,,,-99.99,,2013-05-07 02:02:00,
2013-05-06 22:11:00,56.0,43.0,-100.00,WNW,285,3.0,6.0,60,-99.99,,,-99.99,,2013-05-07 02:11:00,
2013-05-06 22:22:00,56.0,43.0,-100.00,West,275,4.0,6.0,61,-99.99,,,-99.99,,2013-05-07 02:22:00,
2013-05-06 22:32:00,56.0,43.0,-100.00,West,265,4.0,5.0,62,-99.99,,,-99.99,,2013-05-07 02:32:00,
2013-05-06 22:42:00,55.0,43.0,-100.00,West,280,2.0,4.0,63,-99.99,,,-99.99,,2013-05-07 02:42:00,
2013-05-06 22:52:00,55.0,44.0,-100.00,West,275,1.0,4.0,66,-99.99,,,-99.99,,2013-05-07 02:52:00,
2013-05-06 23:02:00,54.0,44.0,-100.00,West,265,4.0,4.0,68,-99.99,,,-99.99,,2013-05-07 03:02:00,
2013-05-06 23:12:00,54.0,45.0,-100.00,WNW,285,1.0,4.0,70,-99.99,,,-99.99,,2013-05-07 03:12:00,
2013-05-06 23:22:00,55.0,45.0,-100.00,WNW,295,0.0,3.0,70,-99.99,,,-99.99,,2013-05-07 03:22:00,
2013-05-06 23:32:00,55.0,46.0,-100.00,West,260,0.0,1.0,72,-99.99,,,-99.99,,2013-05-07 03:32:00,
2013-05-06 23:43:00,54.0,46.0,-100.00,West,260,1.0,1.0,74,-99.99,,,-99.99,,2013-05-07 03:43:00,
2013-05-06 23:53:00,54.0,47.0,-100.00,WSW,240,1.0,2.0,76,-99.99,,,-99.99,,2013-05-07 03:53:00,